Time;durP1;ratioP1;P1;durP2;ratioP2;P2;SDS_P1;SDS_P2;PMS_P1;PMS_P2;Temp;Humidity;BMP_temperature;BMP_pressure;BME280_temperature;BME280_humidity;BME280_pressure;Samples;Min_cycle;Max_cycle;Signal;HPM_P1;HPM_P2
2022/10/31 00:00:18;;;;;;;10.17;5.10;;;;;;;11.24;100.00;96758.25;5086434;28;20217;-82
2022/10/31 00:02:45;;;;;;;11.50;5.97;;;;;;;11.23;100.00;96766.59;5092297;28;20193;-82
2022/10/31 00:05:13;;;;;;;11.13;5.50;;;;;;;11.20;100.00;96757.06;5078968;28;20204;-82
2022/10/31 00:07:41;;;;;;;10.07;4.77;;;;;;;11.22;100.00;96749.56;5090175;28;20209;-82
2022/10/31 00:10:09;;;;;;;10.40;4.80;;;;;;;11.17;100.00;96745.88;5088153;28;20197;-82
2022/10/31 00:12:36;;;;;;;14.33;4.77;;;;;;;11.17;100.00;96738.59;5083204;28;20197;-82
2022/10/31 00:15:04;;;;;;;8.90;4.63;;;;;;;11.25;100.00;96730.19;5087839;28;20210;-82
2022/10/31 00:17:31;;;;;;;11.60;4.87;;;;;;;11.23;100.00;96753.06;5089563;28;20204;-82
2022/10/31 00:19:58;;;;;;;10.27;5.30;;;;;;;11.15;100.00;96754.19;5080990;28;20217;-82
2022/10/31 00:22:26;;;;;;;15.67;5.40;;;;;;;11.08;100.00;96731.81;5086626;28;20222;-82
2022/10/31 00:24:54;;;;;;;16.83;5.50;;;;;;;11.06;100.00;96739.31;5085279;28;20288;-82
2022/10/31 00:27:21;;;;;;;10.80;5.77;;;;;;;11.14;100.00;96738.22;5089455;28;20461;-82
2022/10/31 00:29:48;;;;;;;11.43;4.70;;;;;;;10.99;100.00;96725.06;5087235;28;20196;-82
2022/10/31 00:32:15;;;;;;;8.83;4.70;;;;;;;11.02;100.00;96743.53;5080293;28;20259;-82
2022/10/31 00:34:42;;;;;;;9.90;5.13;;;;;;;10.96;100.00;96739.03;5086989;28;20224;-82
2022/10/31 00:37:10;;;;;;;12.23;4.57;;;;;;;10.92;100.00;96735.94;5087788;28;20208;-82
2022/10/31 00:39:37;;;;;;;13.10;4.90;;;;;;;10.95;100.00;96730.09;5086987;28;20304;-82
2022/10/31 00:42:06;;;;;;;8.03;4.43;;;;;;;10.93;100.00;96725.97;5088758;28;20319;-82
2022/10/31 00:44:33;;;;;;;10.50;4.37;;;;;;;10.97;100.00;96725.28;5082824;28;20197;-82
2022/10/31 00:47:00;;;;;;;11.20;4.67;;;;;;;10.92;100.00;96721.59;5089455;28;20201;-82
2022/10/31 00:49:27;;;;;;;10.37;4.60;;;;;;;10.98;100.00;96739.63;5086943;28;20208;-82
2022/10/31 00:51:54;;;;;;;8.83;4.77;;;;;;;10.86;100.00;96719.81;5083406;28;20237;-82
2022/10/31 00:54:21;;;;;;;9.93;4.30;;;;;;;10.92;100.00;96737.81;5088598;28;20220;-82
2022/10/31 00:56:48;;;;;;;14.20;4.90;;;;;;;10.82;100.00;96741.03;5075770;28;20292;-82
2022/10/31 00:59:16;;;;;;;12.27;4.37;;;;;;;10.80;100.00;96734.22;5086801;28;20212;-82
2022/10/31 01:01:43;;;;;;;11.40;5.40;;;;;;;10.78;100.00;96733.59;5077568;28;20244;-82
2022/10/31 01:04:10;;;;;;;10.27;5.23;;;;;;;10.63;100.00;96714.22;5089352;28;20218;-82
2022/10/31 01:06:37;;;;;;;13.27;5.40;;;;;;;10.57;100.00;96714.03;5081105;28;20459;-82
2022/10/31 01:09:04;;;;;;;11.27;4.87;;;;;;;10.53;100.00;96715.53;5103651;28;20203;-82
2022/10/31 01:11:32;;;;;;;9.47;4.83;;;;;;;10.55;100.00;96716.13;5088172;28;20193;-82
2022/10/31 01:13:59;;;;;;;6.47;4.47;;;;;;;10.60;100.00;96723.56;5086661;28;20216;-82
2022/10/31 01:16:30;;;;;;;13.00;5.00;;;;;;;10.52;100.00;96711.19;5089912;28;20255;-82
2022/10/31 01:18:57;;;;;;;14.03;4.60;;;;;;;10.60;100.00;96718.19;5078795;28;20283;-82
2022/10/31 01:21:29;;;;;;;12.93;4.47;;;;;;;10.63;100.00;96723.16;5079354;28;20227;-82
2022/10/31 01:23:59;;;;;;;9.37;4.17;;;;;;;10.63;100.00;96720.44;5074868;28;20205;-82
2022/10/31 01:26:28;;;;;;;11.03;4.23;;;;;;;10.61;100.00;96723.34;5096847;28;20201;-82
2022/10/31 01:28:57;;;;;;;11.43;4.77;;;;;;;10.60;100.00;96720.88;5083298;28;20211;-82
2022/10/31 01:31:28;;;;;;;12.87;5.00;;;;;;;10.51;100.00;96703.31;5084062;28;20205;-82
2022/10/31 01:33:56;;;;;;;10.87;4.73;;;;;;;10.51;100.00;96697.91;5082067;28;20300;-82
2022/10/31 01:36:25;;;;;;;11.43;4.50;;;;;;;10.56;100.00;96706.97;5087087;28;20208;-82
2022/10/31 01:38:54;;;;;;;14.17;5.10;;;;;;;10.45;100.00;96688.81;5089749;28;20246;-82
2022/10/31 01:41:23;;;;;;;9.47;4.23;;;;;;;10.52;100.00;96700.38;5089568;28;20213;-82
2022/10/31 01:43:53;;;;;;;9.50;4.70;;;;;;;10.56;100.00;96715.09;5086066;28;20267;-82
2022/10/31 01:46:25;;;;;;;11.57;4.77;;;;;;;10.55;100.00;96713.41;5078588;28;20220;-82
2022/10/31 01:48:55;;;;;;;12.40;4.50;;;;;;;10.39;100.00;96696.94;5080327;28;20205;-82
2022/10/31 01:51:26;;;;;;;8.03;3.90;;;;;;;10.44;100.00;96703.38;5087769;28;20205;-82
2022/10/31 01:53:58;;;;;;;8.40;4.20;;;;;;;10.46;100.00;96714.75;5085052;28;20212;-82
2022/10/31 01:56:27;;;;;;;7.63;4.10;;;;;;;10.37;100.00;96707.16;5088481;28;20291;-82
2022/10/31 01:58:56;;;;;;;11.23;4.20;;;;;;;10.42;100.00;96705.44;5085073;28;20209;-82
2022/10/31 02:01:24;;;;;;;10.57;4.67;;;;;;;10.42;100.00;96708.16;5078650;28;20223;-82
2022/10/31 02:03:53;;;;;;;10.80;4.83;;;;;;;10.28;100.00;96701.22;5083109;28;20203;-82
2022/10/31 02:06:32;;;;;;;9.90;4.73;;;;;;;10.22;100.00;96710.16;5071761;28;20259;-82
2022/10/31 02:09:01;;;;;;;9.77;4.77;;;;;;;10.31;100.00;96713.41;5081630;28;20212;-82
2022/10/31 02:11:29;;;;;;;7.63;3.87;;;;;;;10.26;100.00;96697.91;5104982;28;20211;-82
2022/10/31 02:13:56;;;;;;;9.80;4.20;;;;;;;10.26;100.00;96697.91;5082059;28;20205;-82
2022/10/31 02:16:23;;;;;;;9.77;5.10;;;;;;;10.26;100.00;96700.59;5084045;28;20227;-82
2022/10/31 02:18:51;;;;;;;6.70;4.20;;;;;;;10.27;100.00;96710.34;5085667;28;20224;-82
2022/10/31 02:21:24;;;;;;;10.13;4.17;;;;;;;10.23;100.00;96709.94;5081844;28;20299;-82
2022/10/31 02:24:45;;;;;;;8.03;4.47;;;;;;;10.21;100.00;96711.22;5081469;28;20231;-82
2022/10/31 02:27:31;;;;;;;7.47;4.30;;;;;;;10.27;100.00;96713.06;5024383;28;20226;-82
2022/10/31 02:30:06;;;;;;;8.33;5.07;;;;;;;10.19;100.00;96710.63;5004608;28;20256;-82
2022/10/31 02:32:55;;;;;;;9.10;4.33;;;;;;;10.14;100.00;96703.13;5054227;28;20207;-82
2022/10/31 02:35:49;;;;;;;10.70;4.87;;;;;;;10.01;100.00;96708.63;5074234;28;20232;-82
2022/10/31 02:38:30;;;;;;;10.90;5.07;;;;;;;10.03;100.00;96711.97;5091162;28;20201;-81
2022/10/31 02:41:05;;;;;;;8.07;4.40;;;;;;;9.90;100.00;96695.84;5085090;28;20302;-82
2022/10/31 02:44:01;;;;;;;11.67;4.60;;;;;;;10.08;100.00;96712.13;5077960;28;20209;-82
2022/10/31 02:46:33;;;;;;;8.37;4.17;;;;;;;10.01;100.00;96708.63;5074370;28;20209;-82
2022/10/31 02:49:09;;;;;;;8.93;4.80;;;;;;;9.99;100.00;96709.88;5082042;28;20205;-82
2022/10/31 02:51:36;;;;;;;8.73;4.20;;;;;;;10.00;100.00;96706.16;5083984;28;20201;-82
2022/10/31 02:54:04;;;;;;;10.40;4.23;;;;;;;9.98;100.00;96702.84;5080621;28;20194;-82
2022/10/31 02:56:32;;;;;;;11.20;4.00;;;;;;;9.99;100.00;96709.88;5077742;28;20292;-82
2022/10/31 02:59:02;;;;;;;8.50;4.00;;;;;;;9.95;100.00;96714.09;5080515;28;20201;-82
2022/10/31 03:01:46;;;;;;;10.33;4.73;;;;;;;9.95;100.00;96712.22;5083957;28;20227;-82
2022/10/31 03:04:41;;;;;;;7.17;4.47;;;;;;;9.96;100.00;96700.34;5087109;28;20193;-82
2022/10/31 03:07:18;;;;;;;12.73;4.40;;;;;;;9.95;100.00;96700.59;5076875;28;20216;-82
2022/10/31 03:09:54;;;;;;;8.87;4.67;;;;;;;9.87;100.00;96699.78;5076812;28;20200;-82
2022/10/31 03:12:29;;;;;;;11.27;4.37;;;;;;;9.88;100.00;96696.06;5084588;28;20192;-82
2022/10/31 03:15:06;;;;;;;9.37;4.50;;;;;;;9.85;100.00;96703.78;5088455;28;20235;-82
2022/10/31 03:17:38;;;;;;;12.07;4.43;;;;;;;9.90;100.00;96705.81;5085543;28;20200;-81
2022/10/31 03:20:11;;;;;;;11.00;5.17;;;;;;;9.84;100.00;96697.53;5087796;28;20217;-82
2022/10/31 03:22:41;;;;;;;10.27;4.53;;;;;;;9.89;100.00;96694.19;5101643;28;20228;-82
2022/10/31 03:25:10;;;;;;;9.37;4.37;;;;;;;9.88;100.00;96690.66;5094084;28;20224;-82
2022/10/31 03:27:40;;;;;;;13.73;4.73;;;;;;;9.91;100.00;96691.28;5092781;28;20243;-82
2022/10/31 03:30:08;;;;;;;10.27;4.40;;;;;;;9.82;100.00;96693.41;5100395;28;20209;-82
2022/10/31 03:32:51;;;;;;;10.43;4.57;;;;;;;9.85;100.00;96691.09;5081348;28;20203;-82
2022/10/31 03:35:23;;;;;;;10.80;4.43;;;;;;;9.78;100.00;96690.28;5090783;28;20341;-82
2022/10/31 03:37:53;;;;;;;13.33;3.87;;;;;;;9.72;100.00;96688.47;5084277;28;20254;-82
2022/10/31 03:40:23;;;;;;;11.90;4.40;;;;;;;9.78;100.00;96684.91;5089480;28;20196;-82
2022/10/31 03:42:56;;;;;;;9.93;4.13;;;;;;;9.79;100.00;96677.66;5083495;28;20217;-82
2022/10/31 03:45:26;;;;;;;13.07;4.23;;;;;;;9.76;100.00;96678.94;5082604;28;20293;-82
2022/10/31 03:47:55;;;;;;;8.20;4.23;;;;;;;9.69;100.00;96682.72;5084042;28;20235;-82
2022/10/31 03:50:28;;;;;;;13.27;4.87;;;;;;;9.70;100.00;96674.38;5080132;28;20194;-82
2022/10/31 03:53:02;;;;;;;8.07;4.00;;;;;;;9.61;100.00;96662.19;5087946;28;20213;-82
2022/10/31 03:55:38;;;;;;;8.63;4.40;;;;;;;9.68;100.00;96663.00;5088723;28;20200;-82
2022/10/31 03:58:09;;;;;;;9.20;4.07;;;;;;;9.70;100.00;96663.59;5085526;28;20213;-82
2022/10/31 04:00:42;;;;;;;9.60;4.23;;;;;;;9.68;100.00;96671.09;5086863;28;20204;-82
2022/10/31 04:03:13;;;;;;;8.03;4.13;;;;;;;9.68;100.00;96668.41;5089142;28;20213;-82
2022/10/31 04:05:47;;;;;;;11.57;4.57;;;;;;;9.49;100.00;96645.91;5085582;28;20237;-81
2022/10/31 04:08:19;;;;;;;8.07;4.23;;;;;;;9.56;100.00;96640.47;5081242;28;20194;-82
2022/10/31 04:10:49;;;;;;;9.87;4.30;;;;;;;9.65;100.00;96658.03;5080429;28;20248;-82
2022/10/31 04:13:23;;;;;;;8.97;4.20;;;;;;;9.58;100.00;96638.38;5087537;28;20208;-82
2022/10/31 04:15:59;;;;;;;7.60;4.00;;;;;;;9.69;100.00;96648.47;5083951;28;20229;-82
2022/10/31 04:18:26;;;;;;;10.83;4.30;;;;;;;9.68;100.00;96646.00;5081667;28;20222;-81
2022/10/31 04:21:03;;;;;;;12.80;4.90;;;;;;;9.55;100.00;96652.28;5090579;28;20231;-82
2022/10/31 04:23:31;;;;;;;9.07;4.17;;;;;;;9.46;100.00;96646.31;5080036;28;20246;-82
2022/10/31 04:26:00;;;;;;;11.27;4.17;;;;;;;9.44;100.00;96651.09;5090170;28;20189;-82
2022/10/31 04:28:27;;;;;;;10.77;4.67;;;;;;;9.47;100.00;96649.84;5084989;28;20477;-82
2022/10/31 04:30:55;;;;;;;13.97;4.87;;;;;;;9.34;100.00;96629.19;5084748;28;20198;-82
2022/10/31 04:33:23;;;;;;;11.57;4.80;;;;;;;9.38;100.00;96629.56;5082449;28;20189;-81
2022/10/31 04:35:50;;;;;;;8.10;4.40;;;;;;;9.49;100.00;96640.50;5087592;28;20236;-82
2022/10/31 04:38:18;;;;;;;10.23;4.40;;;;;;;9.55;100.00;96646.88;5086576;28;20197;-82
2022/10/31 04:40:46;;;;;;;10.27;4.20;;;;;;;9.50;100.00;96646.72;5086698;28;20201;-82
2022/10/31 04:43:31;;;;;;;10.27;4.90;;;;;;;9.40;100.00;96649.88;5090231;28;20228;-82
2022/10/31 04:46:00;;;;;;;8.23;4.53;;;;;;;9.35;100.00;96654.28;5088550;28;20288;-82
2022/10/31 04:48:27;;;;;;;13.07;4.80;;;;;;;9.32;100.00;96652.84;5085535;28;20198;-82
2022/10/31 04:51:00;;;;;;;11.30;5.23;;;;;;;9.30;100.00;96656.78;5082374;28;20209;-82
2022/10/31 04:53:29;;;;;;;14.80;4.90;;;;;;;9.28;100.00;96658.84;5076906;28;20209;-82
2022/10/31 04:56:14;;;;;;;12.93;4.77;;;;;;;9.27;100.00;96643.75;5079898;28;20214;-82
2022/10/31 04:58:48;;;;;;;11.67;4.80;;;;;;;9.24;100.00;96650.38;5086390;28;20237;-82
2022/10/31 05:01:15;;;;;;;16.23;5.23;;;;;;;9.26;100.00;96637.53;5087803;28;20201;-82
2022/10/31 05:03:42;;;;;;;8.90;4.23;;;;;;;9.14;100.00;96633.84;5091101;28;20264;-82
2022/10/31 05:06:09;;;;;;;9.67;4.40;;;;;;;9.22;100.00;96644.38;5090911;28;20219;-82
2022/10/31 05:08:42;;;;;;;8.60;4.57;;;;;;;9.23;100.00;96639.81;5087174;28;20200;-82
2022/10/31 05:11:11;;;;;;;11.20;4.27;;;;;;;9.21;100.00;96636.50;5089300;28;20282;-82
2022/10/31 05:13:38;;;;;;;14.10;5.03;;;;;;;9.09;100.00;96618.34;5086202;28;20197;-82
2022/10/31 05:16:11;;;;;;;12.07;5.10;;;;;;;9.22;100.00;96633.59;5076242;28;20276;-82
2022/10/31 05:18:57;;;;;;;8.50;4.63;;;;;;;9.20;100.00;96630.28;5082810;28;20231;-81
2022/10/31 05:21:43;;;;;;;10.20;4.30;;;;;;;9.21;100.00;96631.94;5087332;28;20252;-82
2022/10/31 05:24:13;;;;;;;6.80;3.93;;;;;;;9.21;100.00;96631.94;5087357;28;20200;-82
2022/10/31 05:26:45;;;;;;;7.60;4.50;;;;;;;9.03;100.00;96616.47;5083798;28;20451;-81
2022/10/31 05:29:14;;;;;;;9.40;4.10;;;;;;;9.03;100.00;96616.47;5083227;28;20208;-82
2022/10/31 05:31:41;;;;;;;10.80;4.90;;;;;;;9.14;100.00;96630.31;5088055;28;20288;-81
2022/10/31 05:34:15;;;;;;;7.20;4.50;;;;;;;9.11;100.00;96631.56;5085825;28;20235;-82
2022/10/31 05:36:46;;;;;;;14.23;4.73;;;;;;;9.05;100.00;96610.88;5083174;28;20197;-82
2022/10/31 05:39:17;;;;;;;9.40;4.10;;;;;;;9.05;100.00;96621.66;5083579;28;20228;-82
2022/10/31 05:41:48;;;;;;;8.77;3.70;;;;;;;9.03;100.00;96624.56;5077773;28;20284;-82
2022/10/31 05:44:35;;;;;;;11.53;4.70;;;;;;;9.03;100.00;96616.47;5086180;28;20217;-82
2022/10/31 05:47:08;;;;;;;8.93;4.83;;;;;;;9.07;100.00;96609.63;5083665;28;20209;-81
2022/10/31 05:49:54;;;;;;;12.27;5.13;;;;;;;9.10;100.00;96611.88;5084616;28;20216;-81
2022/10/31 05:52:39;;;;;;;8.87;5.10;;;;;;;9.13;100.00;96607.94;5079569;28;20212;-81
2022/10/31 05:55:21;;;;;;;7.23;4.30;;;;;;;9.08;100.00;96619.38;5085291;28;20222;-81
2022/10/31 05:58:08;;;;;;;7.67;4.20;;;;;;;8.97;100.00;96601.19;5083921;28;20236;-82
2022/10/31 06:00:38;;;;;;;6.90;4.17;;;;;;;9.05;100.00;96610.88;5078097;28;20200;-81
2022/10/31 06:03:13;;;;;;;6.73;3.97;;;;;;;8.95;100.00;96589.78;5074033;28;20210;-82
2022/10/31 06:05:48;;;;;;;7.80;4.43;;;;;;;9.02;100.00;96595.13;5082646;28;20220;-81
2022/10/31 06:08:16;;;;;;;13.03;5.63;;;;;;;9.05;100.00;96603.63;5082911;28;20201;-82
2022/10/31 06:10:46;;;;;;;12.20;6.30;;;;;;;9.01;100.00;96607.81;5082806;28;20193;-82
2022/10/31 06:13:15;;;;;;;13.93;5.67;;;;;;;9.07;100.00;96620.41;5078489;28;20213;-82
2022/10/31 06:15:48;;;;;;;10.80;5.20;;;;;;;9.09;100.00;96612.94;5088165;28;20188;-81
2022/10/31 06:18:18;;;;;;;13.37;6.70;;;;;;;9.11;100.00;96621.63;5080833;28;20209;-82
2022/10/31 06:20:48;;;;;;;18.70;6.33;;;;;;;9.17;100.00;96608.34;5086231;28;20216;-82
2022/10/31 06:23:16;;;;;;;11.23;5.93;;;;;;;9.12;100.00;96627.84;5084085;28;20229;-82
2022/10/31 06:25:49;;;;;;;15.00;6.27;;;;;;;9.11;100.00;96615.41;5081723;28;20228;-81
2022/10/31 06:28:17;;;;;;;9.33;5.37;;;;;;;9.17;100.00;96602.97;5083562;28;20201;-82
2022/10/31 06:30:50;;;;;;;13.27;5.63;;;;;;;9.22;100.00;96608.53;5084410;28;20193;-82
2022/10/31 06:33:18;;;;;;;12.70;5.70;;;;;;;9.20;100.00;96594.44;5087491;28;20258;-81
2022/10/31 06:35:55;;;;;;;14.27;5.30;;;;;;;9.31;100.00;96599.16;5081564;28;20235;-81
2022/10/31 06:38:23;;;;;;;14.70;5.53;;;;;;;9.28;100.00;96615.72;5082830;28;20207;-82
2022/10/31 06:40:52;;;;;;;15.20;4.80;;;;;;;9.25;100.00;96613.50;5084101;28;20284;-82
2022/10/31 06:43:24;;;;;;;8.97;4.60;;;;;;;9.26;100.00;96617.84;5098989;28;20330;-82
2022/10/31 06:46:03;;;;;;;12.93;5.53;;;;;;;9.29;100.00;96617.38;5073911;28;20288;-82
2022/10/31 06:48:47;;;;;;;16.53;6.03;;;;;;;9.40;100.00;96619.41;5086211;28;20201;-82
2022/10/31 06:51:21;;;;;;;14.00;5.50;;;;;;;9.42;100.00;96620.03;5102781;28;20205;-82
2022/10/31 06:53:51;;;;;;;11.90;5.13;;;;;;;9.34;100.00;96607.63;5084166;28;20208;-82
2022/10/31 06:56:20;;;;;;;11.50;5.13;;;;;;;9.39;100.00;96623.16;5081445;28;20208;-82
2022/10/31 06:58:52;;;;;;;9.60;4.93;;;;;;;9.27;100.00;96614.91;5079982;28;20208;-82
2022/10/31 07:01:29;;;;;;;11.47;5.30;;;;;;;9.29;100.00;96610.13;5079552;28;20205;-81
2022/10/31 07:03:57;;;;;;;11.00;4.83;;;;;;;9.31;100.00;96620.69;5084397;28;20279;-82
2022/10/31 07:06:24;;;;;;;14.80;5.33;;;;;;;9.35;100.00;96616.53;5082131;28;20219;-82
2022/10/31 07:08:52;;;;;;;12.60;5.33;;;;;;;9.46;100.00;96619.38;5084356;28;20205;-82
2022/10/31 07:11:20;;;;;;;13.27;5.63;;;;;;;9.52;100.00;96617.69;5082444;28;20221;-82
2022/10/31 07:13:47;;;;;;;12.73;6.00;;;;;;;9.58;100.00;96618.69;5079960;28;20233;-82
2022/10/31 07:16:16;;;;;;;14.37;5.50;;;;;;;9.61;100.00;96620.94;5074564;28;20197;-82
2022/10/31 07:18:43;;;;;;;14.20;6.40;;;;;;;9.61;100.00;96619.06;5099109;28;20223;-82
2022/10/31 07:21:13;;;;;;;12.73;6.17;;;;;;;9.58;100.00;96616.81;5074273;28;20288;-82
2022/10/31 07:23:40;;;;;;;11.03;5.63;;;;;;;9.57;100.00;96614.34;5083921;28;20216;-82
2022/10/31 07:26:27;;;;;;;16.33;6.57;;;;;;;9.70;100.00;96617.75;5085880;28;20216;-82
2022/10/31 07:28:54;;;;;;;10.23;5.33;;;;;;;9.67;100.00;96610.13;5082108;28;20279;-82
2022/10/31 07:31:24;;;;;;;16.20;5.97;;;;;;;9.76;100.00;96630.38;5074317;28;20207;-82
2022/10/31 07:33:54;;;;;;;10.30;5.73;;;;;;;9.79;100.00;96613.75;5079427;28;20196;-82
2022/10/31 07:36:27;;;;;;;12.40;5.80;;;;;;;9.85;100.00;96618.28;5086656;28;20208;-82
2022/10/31 07:38:59;;;;;;;13.17;5.20;;;;;;;9.91;100.00;96634.63;5079416;28;20201;-82
2022/10/31 07:41:28;;;;;;;13.67;7.20;;;;;;;9.84;100.00;96623.91;5087520;28;20213;-82
2022/10/31 07:43:55;;;;;;;14.63;5.77;;;;;;;9.89;100.00;96634.84;5084196;28;20312;-82
2022/10/31 07:46:41;;;;;;;7.67;5.07;;;;;;;9.91;100.00;96638.16;5085287;28;20215;-81
2022/10/31 07:49:46;;;;;;;12.90;5.60;;;;;;;9.96;100.00;96642.88;5084112;28;20235;-82
2022/10/31 07:52:36;;;;;;;13.07;5.10;;;;;;;10.01;100.00;96633.09;5083546;28;20433;-82
2022/10/31 07:55:26;;;;;;;13.20;5.53;;;;;;;10.08;100.00;96627.66;5079917;28;20225;-82
2022/10/31 07:57:59;;;;;;;18.40;6.50;;;;;;;10.11;100.00;96635.31;5081788;28;20209;-82
2022/10/31 08:00:31;;;;;;;13.43;5.83;;;;;;;10.13;100.00;96622.41;5083027;28;20239;-82
2022/10/31 08:02:59;;;;;;;9.97;5.50;;;;;;;10.12;100.00;96629.66;5084364;28;20217;-81
2022/10/31 08:05:46;;;;;;;10.13;5.30;;;;;;;10.14;100.00;96630.28;5091749;28;20201;-82
2022/10/31 08:08:29;;;;;;;11.70;5.23;;;;;;;10.20;100.00;96636.72;5081637;28;20223;-82
2022/10/31 08:10:56;;;;;;;12.67;5.60;;;;;;;10.25;100.00;96642.28;5091265;28;20270;-82
2022/10/31 08:13:25;;;;;;;11.47;5.53;;;;;;;10.35;100.00;96639.91;5076978;28;20205;-82
2022/10/31 08:15:55;;;;;;;11.87;5.63;;;;;;;10.40;100.00;96640.03;5088276;28;20208;-81
2022/10/31 08:18:25;;;;;;;13.20;6.23;;;;;;;10.46;100.00;96638.34;5085711;28;20221;-82
2022/10/31 08:20:54;;;;;;;13.37;6.00;;;;;;;10.54;100.00;96638.06;5082878;28;20307;-82
2022/10/31 08:23:21;;;;;;;12.23;5.77;;;;;;;10.65;100.00;96633.78;5089152;28;20220;-81
2022/10/31 08:25:49;;;;;;;15.43;6.33;;;;;;;10.72;100.00;96629.97;5086940;28;20200;-82
2022/10/31 08:28:16;;;;;;;12.47;5.90;;;;;;;10.79;100.00;96621.81;5090176;28;20220;-82
2022/10/31 08:30:47;;;;;;;11.23;6.00;;;;;;;10.85;100.00;96631.69;5088676;28;20197;-82
2022/10/31 08:33:37;;;;;;;13.83;5.83;;;;;;;10.90;100.00;96648.88;5074997;28;20227;-81
2022/10/31 08:36:20;;;;;;;11.43;5.43;;;;;;;10.96;100.00;96633.66;5075350;28;20201;-82
2022/10/31 08:38:55;;;;;;;12.40;5.67;;;;;;;11.00;100.00;96637.56;5086422;28;20200;-82
2022/10/31 08:41:22;;;;;;;12.43;6.00;;;;;;;11.13;100.00;96634.72;5098319;28;20205;-82
2022/10/31 08:43:50;;;;;;;11.57;6.20;;;;;;;11.25;100.00;96632.88;5088312;28;20301;-82
2022/10/31 08:46:20;;;;;;;23.07;7.03;;;;;;;11.33;100.00;96627.16;5086396;28;20300;-82
2022/10/31 08:48:49;;;;;;;15.37;6.37;;;;;;;11.39;100.00;96611.91;5088544;28;20222;-82
2022/10/31 08:51:17;;;;;;;15.00;6.43;;;;;;;11.51;100.00;96612.75;5076283;28;20212;-82
2022/10/31 08:53:45;;;;;;;16.93;6.10;;;;;;;11.65;100.00;96618.84;5083218;28;20205;-82
2022/10/31 08:56:35;;;;;;;16.27;6.00;;;;;;;11.75;100.00;96629.94;5057649;28;20248;-81
2022/10/31 08:59:09;;;;;;;15.23;7.20;;;;;;;11.81;100.00;96612.78;5083503;28;20202;-82
2022/10/31 09:01:51;;;;;;;13.73;6.13;;;;;;;11.92;100.00;96627.38;5084748;28;20198;-82
2022/10/31 09:04:19;;;;;;;15.47;6.70;;;;;;;11.93;100.00;96627.16;5079446;28;20217;-82
2022/10/31 09:06:46;;;;;;;13.57;6.63;;;;;;;11.96;100.00;96615.88;5077869;28;20185;-82
2022/10/31 09:09:14;;;;;;;11.20;6.27;;;;;;;12.00;100.00;96616.22;5085056;28;20196;-83
2022/10/31 09:11:41;;;;;;;9.80;5.83;;;;;;;12.03;100.00;96624.72;5087136;28;20200;-82
2022/10/31 09:14:11;;;;;;;13.57;6.77;;;;;;;12.08;100.00;96626.72;5082325;28;20254;-82
2022/10/31 09:16:58;;;;;;;15.40;6.63;;;;;;;12.09;100.00;96621.06;5087467;28;20216;-82
2022/10/31 09:19:38;;;;;;;19.73;6.80;;;;;;;12.14;100.00;96628.50;5080180;28;20251;-82
2022/10/31 09:22:08;;;;;;;15.27;6.80;;;;;;;12.17;100.00;96635.31;5091911;28;20220;-82
2022/10/31 09:24:35;;;;;;;13.97;6.20;;;;;;;12.16;100.00;96634.50;5088821;28;20216;-82
2022/10/31 09:27:02;;;;;;;21.63;7.20;;;;;;;12.15;100.00;96632.03;5085276;28;20296;-82
2022/10/31 09:29:29;;;;;;;13.47;6.43;;;;;;;12.20;100.00;96627.56;5085307;28;20197;-82
2022/10/31 09:32:01;;;;;;;12.30;5.50;;;;;;;12.20;100.00;96626.75;5089446;28;20212;-82
2022/10/31 09:34:29;;;;;;;15.87;6.73;;;;;;;12.31;100.00;96640.28;5091086;28;20232;-82
2022/10/31 09:37:07;;;;;;;9.90;6.30;;;;;;;12.37;100.00;96635.81;5077515;28;20200;-81
2022/10/31 09:39:36;;;;;;;9.60;5.37;;;;;;;12.30;100.00;96633.22;5079874;28;20208;-82
2022/10/31 09:42:31;;;;;;;10.43;5.30;;;;;;;12.44;100.00;96650.06;5077696;28;20201;-82
2022/10/31 09:45:08;;;;;;;10.17;5.73;;;;;;;12.45;100.00;96640.88;5079166;28;20251;-82
2022/10/31 09:47:53;;;;;;;11.60;6.37;;;;;;;12.46;100.00;96623.56;5083217;28;20193;-82
2022/10/31 09:50:41;;;;;;;9.03;5.23;;;;;;;12.57;100.00;96636.31;5081108;28;20201;-82
2022/10/31 09:53:35;;;;;;;22.90;14.13;;;;;;;12.68;100.00;96635.47;5080360;28;20197;-82
2022/10/31 09:56:06;;;;;;;15.27;6.63;;;;;;;12.77;100.00;96639.47;5080590;28;20228;-82
2022/10/31 09:58:38;;;;;;;11.20;6.30;;;;;;;12.89;100.00;96632.16;5094328;28;20224;-82
2022/10/31 10:01:07;;;;;;;11.97;5.93;;;;;;;12.99;100.00;96615.28;5080044;28;20213;-82
2022/10/31 10:03:40;;;;;;;10.73;5.60;;;;;;;13.09;100.00;96614.69;5092768;28;20221;-82
2022/10/31 10:06:30;;;;;;;11.93;6.00;;;;;;;13.13;100.00;96615.84;5087102;28;20219;-82
2022/10/31 10:09:36;;;;;;;13.67;6.23;;;;;;;13.11;100.00;96607.13;5101829;28;20219;-82
2022/10/31 10:12:45;;;;;;;11.00;6.60;;;;;;;13.16;100.00;96596.41;5089838;28;20200;-82
2022/10/31 10:15:32;;;;;;;13.17;5.20;;;;;;;13.15;100.00;96592.88;5089421;28;20224;-82
2022/10/31 10:18:10;;;;;;;13.60;5.83;;;;;;;13.13;100.00;96597.72;5096425;28;20208;-82
2022/10/31 10:20:45;;;;;;;17.83;6.13;;;;;;;13.15;100.00;96592.06;5075174;28;20300;-82
2022/10/31 10:23:33;;;;;;;11.97;6.30;;;;;;;13.27;100.00;96583.91;5077309;28;20201;-82
2022/10/31 10:26:07;;;;;;;12.57;5.40;;;;;;;13.32;100.00;96590.25;5083475;28;20208;-82
2022/10/31 10:28:39;;;;;;;13.83;6.17;;;;;;;13.29;100.00;96582.56;5088863;28;20197;-82
2022/10/31 10:31:17;;;;;;;13.20;5.60;;;;;;;13.31;100.00;96593.19;5090168;28;20228;-82
2022/10/31 10:33:51;;;;;;;11.93;5.07;;;;;;;13.34;100.00;96590.81;5089285;28;20197;-82
2022/10/31 10:36:28;;;;;;;12.10;5.50;;;;;;;13.29;100.00;96584.47;5093804;28;20220;-82
2022/10/31 10:39:01;;;;;;;14.40;5.80;;;;;;;13.35;100.00;96589.75;5077950;28;20209;-82
2022/10/31 10:41:32;;;;;;;13.63;5.70;;;;;;;13.26;100.00;96561.38;5098449;28;20277;-82
2022/10/31 10:44:00;;;;;;;11.87;5.00;;;;;;;13.32;100.00;96587.53;5082943;28;20236;-82
2022/10/31 10:49:31;;;;;;;11.50;5.90;;;;;;;13.26;100.00;96572.22;5077401;28;20212;-82
2022/10/31 10:52:07;;;;;;;12.63;5.50;;;;;;;13.31;100.00;96580.44;5080305;28;20196;-82
2022/10/31 10:54:55;;;;;;;15.53;5.70;;;;;;;13.23;100.00;96551.84;5088334;28;20205;-82
2022/10/31 10:57:41;;;;;;;9.87;5.57;;;;;;;13.37;100.00;96556.94;5077880;28;20297;-81
2022/10/31 11:00:18;;;;;;;16.60;5.87;;;;;;;13.38;100.00;96570.28;5078092;28;20212;-82
2022/10/31 11:02:47;;;;;;;17.63;7.93;;;;;;;13.40;100.00;96583.59;5086585;28;20227;-82
2022/10/31 11:05:22;;;;;;;13.40;7.37;;;;;;;13.36;100.00;96577.00;5083745;28;20267;-82
2022/10/31 11:07:51;;;;;;;11.00;5.17;;;;;;;13.38;100.00;96581.13;5086279;28;20296;-82
2022/10/31 11:10:18;;;;;;;12.60;5.47;;;;;;;13.33;100.00;96570.19;5083124;28;20208;-82
2022/10/31 11:12:59;;;;;;;13.37;5.57;;;;;;;13.41;100.00;96572.50;5081556;28;20201;-82
2022/10/31 11:15:28;;;;;;;13.13;5.53;;;;;;;13.36;100.00;96577.81;5086529;28;20205;-82
2022/10/31 11:17:57;;;;;;;10.43;5.80;;;;;;;13.37;100.00;96556.94;5082844;28;20209;-82
2022/10/31 11:20:31;;;;;;;10.43;5.47;;;;;;;13.45;100.00;96573.66;5076751;28;20226;-80
2022/10/31 11:23:06;;;;;;;14.27;6.13;;;;;;;13.36;100.00;96558.84;5088200;28;20299;-80
2022/10/31 11:25:33;;;;;;;11.13;5.50;;;;;;;13.45;100.00;96560.09;5087624;28;20224;-80
2022/10/31 11:28:02;;;;;;;19.03;6.93;;;;;;;13.47;100.00;96590.53;5084572;28;20193;-80
2022/10/31 11:30:30;;;;;;;14.47;6.20;;;;;;;13.46;100.00;96559.03;5089007;28;20215;-80
2022/10/31 11:32:57;;;;;;;15.43;6.07;;;;;;;13.46;100.00;96556.31;5098796;28;20216;-80
2022/10/31 11:35:26;;;;;;;12.97;6.30;;;;;;;13.55;100.00;96560.28;5085381;28;20281;-80
2022/10/31 11:37:58;;;;;;;15.00;5.60;;;;;;;13.55;100.00;96568.44;5083546;28;20212;-80
2022/10/31 11:40:27;;;;;;;10.53;5.13;;;;;;;13.64;100.00;96549.88;5088894;28;20201;-80
2022/10/31 11:42:58;;;;;;;9.83;5.73;;;;;;;13.65;100.00;96562.38;5091758;28;20206;-80
2022/10/31 11:45:32;;;;;;;11.33;6.10;;;;;;;13.70;100.00;96529.06;5103091;28;20221;-80
2022/10/31 11:48:01;;;;;;;10.43;6.13;;;;;;;13.70;100.00;96545.34;5087067;28;20266;-80
2022/10/31 11:50:35;;;;;;;11.03;6.07;;;;;;;13.75;100.00;96524.56;5078470;28;20221;-80